sensor_id;sensor_type;location;lat;lon;timestamp;pressure;altitude;pressure_sealevel;temperature;humidity
3812;BME280;1921;49.368;11.068;2022-09-09T00:02:15;97360.09;;;13.58;100.00
3812;BME280;1921;49.368;11.068;2022-09-09T00:04:59;97401.63;;;13.87;100.00
3812;BME280;1921;49.368;11.068;2022-09-09T00:07:51;97360.91;;;13.58;100.00
3812;BME280;1921;49.368;11.068;2022-09-09T00:10:33;97334.31;;;13.35;100.00
3812;BME280;1921;49.368;11.068;2022-09-09T00:16:12;97374.81;;;13.45;100.00
3812;BME280;1921;49.368;11.068;2022-09-09T00:19:05;97332.50;;;13.29;100.00
3812;BME280;1921;49.368;11.068;2022-09-09T00:21:38;97359.53;;;13.42;100.00
3812;BME280;1921;49.368;11.068;2022-09-09T00:24:28;97390.53;;;13.72;100.00
3812;BME280;1921;49.368;11.068;2022-09-09T00:30:22;97362.16;;;13.42;100.00
3812;BME280;1921;49.368;11.068;2022-09-09T00:32:54;97274.66;;;12.90;100.00
3812;BME280;1921;49.368;11.068;2022-09-09T00:35:36;97307.06;;;13.09;100.00
3812;BME280;1921;49.368;11.068;2022-09-09T00:38:45;97391.56;;;13.58;100.00
3812;BME280;1921;49.368;11.068;2022-09-09T00:44:38;97235.97;;;12.59;100.00
3812;BME280;1921;49.368;11.068;2022-09-09T00:58:31;97178.50;;;11.98;100.00
3812;BME280;1921;49.368;11.068;2022-09-09T01:01:11;97293.16;;;12.76;100.00
3812;BME280;1921;49.368;11.068;2022-09-09T01:03:52;97310.28;;;12.85;100.00
3812;BME280;1921;49.368;11.068;2022-09-09T01:06:34;97319.34;;;12.89;100.00
3812;BME280;1921;49.368;11.068;2022-09-09T01:12:16;97393.56;;;13.42;100.00
3812;BME280;1921;49.368;11.068;2022-09-09T01:14:49;97301.03;;;12.89;100.00
3812;BME280;1921;49.368;11.068;2022-09-09T01:17:44;97361.47;;;13.14;100.00
3812;BME280;1921;49.368;11.068;2022-09-09T01:24:04;97346.75;;;13.06;100.00
3812;BME280;1921;49.368;11.068;2022-09-09T01:26:46;97309.66;;;12.83;100.00
3812;BME280;1921;49.368;11.068;2022-09-09T01:29:16;97293.13;;;12.62;100.00
3812;BME280;1921;49.368;11.068;2022-09-09T01:34:37;97392.78;;;13.42;100.00
3812;BME280;1921;49.368;11.068;2022-09-09T01:37:12;97363.50;;;13.18;100.00
3812;BME280;1921;49.368;11.068;2022-09-09T01:39:41;97316.94;;;12.87;100.00
3812;BME280;1921;49.368;11.068;2022-09-09T01:42:11;97293.16;;;12.89;100.00
3812;BME280;1921;49.368;11.068;2022-09-09T01:44:39;97316.97;;;13.14;100.00
3812;BME280;1921;49.368;11.068;2022-09-09T01:47:05;97373.81;;;13.53;100.00
3812;BME280;1921;49.368;11.068;2022-09-09T01:49:32;97309.13;;;13.20;100.00
3812;BME280;1921;49.368;11.068;2022-09-09T01:51:58;97298.88;;;13.26;100.00
3812;BME280;1921;49.368;11.068;2022-09-09T01:54:28;97365.16;;;13.53;100.00
3812;BME280;1921;49.368;11.068;2022-09-09T01:57:21;97389.72;;;13.85;100.00
3812;BME280;1921;49.368;11.068;2022-09-09T02:08:08;97330.28;;;13.52;100.00
3812;BME280;1921;49.368;11.068;2022-09-09T02:13:14;97351.25;;;13.59;100.00
3812;BME280;1921;49.368;11.068;2022-09-09T02:16:07;97367.75;;;13.66;100.00
3812;BME280;1921;49.368;11.068;2022-09-09T02:19:09;97379.06;;;13.80;100.00
3812;BME280;1921;49.368;11.068;2022-09-09T02:21:42;97364.75;;;13.56;100.00
3812;BME280;1921;49.368;11.068;2022-09-09T02:24:11;97384.31;;;13.73;100.00
3812;BME280;1921;49.368;11.068;2022-09-09T02:26:42;97306.13;;;13.30;100.00
3812;BME280;1921;49.368;11.068;2022-09-09T02:29:33;97375.44;;;13.81;100.00
3812;BME280;1921;49.368;11.068;2022-09-09T02:32:03;97344.59;;;13.63;100.00
3812;BME280;1921;49.368;11.068;2022-09-09T02:34:35;97308.13;;;13.41;100.00
3812;BME280;1921;49.368;11.068;2022-09-09T02:37:03;97280.13;;;13.29;100.00
3812;BME280;1921;49.368;11.068;2022-09-09T02:39:32;97337.16;;;13.66;100.00
3812;BME280;1921;49.368;11.068;2022-09-09T02:41:57;97319.19;;;13.63;100.00
3812;BME280;1921;49.368;11.068;2022-09-09T02:44:23;97222.91;;;13.06;100.00
3812;BME280;1921;49.368;11.068;2022-09-09T02:52:26;97279.13;;;13.50;100.00
3812;BME280;1921;49.368;11.068;2022-09-09T02:54:59;97312.72;;;13.72;100.00
3812;BME280;1921;49.368;11.068;2022-09-09T02:57:32;97317.38;;;13.70;100.00
3812;BME280;1921;49.368;11.068;2022-09-09T02:59:59;97354.63;;;13.99;100.00
3812;BME280;1921;49.368;11.068;2022-09-09T03:02:26;97348.19;;;13.95;100.00
3812;BME280;1921;49.368;11.068;2022-09-09T03:04:52;97302.84;;;13.74;100.00
3812;BME280;1921;49.368;11.068;2022-09-09T03:07:21;97358.44;;;14.03;100.00
3812;BME280;1921;49.368;11.068;2022-09-09T03:09:47;97319.16;;;13.77;100.00
3812;BME280;1921;49.368;11.068;2022-09-09T03:12:14;97273.66;;;13.51;100.00
3812;BME280;1921;49.368;11.068;2022-09-09T03:14:40;97329.03;;;13.88;100.00
3812;BME280;1921;49.368;11.068;2022-09-09T03:17:06;97307.69;;;13.71;100.00
3812;BME280;1921;49.368;11.068;2022-09-09T03:19:32;97325.03;;;13.85;100.00
3812;BME280;1921;49.368;11.068;2022-09-09T03:21:58;97290.38;;;13.63;100.00
3812;BME280;1921;49.368;11.068;2022-09-09T03:24:25;97365.47;;;14.22;100.00
3812;BME280;1921;49.368;11.068;2022-09-09T03:26:51;97330.41;;;13.97;100.00
3812;BME280;1921;49.368;11.068;2022-09-09T03:29:17;97283.31;;;13.64;100.00
3812;BME280;1921;49.368;11.068;2022-09-09T03:31:44;97249.88;;;13.53;100.00
3812;BME280;1921;49.368;11.068;2022-09-09T03:34:10;97314.53;;;13.92;100.00
3812;BME280;1921;49.368;11.068;2022-09-09T03:36:36;97301.41;;;13.92;100.00
3812;BME280;1921;49.368;11.068;2022-09-09T03:39:03;97337.09;;;13.99;100.00
3812;BME280;1921;49.368;11.068;2022-09-09T03:41:30;97329.41;;;14.05;100.00
3812;BME280;1921;49.368;11.068;2022-09-09T03:43:56;97303.63;;;13.88;100.00
3812;BME280;1921;49.368;11.068;2022-09-09T03:46:24;97248.47;;;13.57;100.00
3812;BME280;1921;49.368;11.068;2022-09-09T03:48:51;97321.34;;;14.06;100.00
3812;BME280;1921;49.368;11.068;2022-09-09T03:51:18;97313.47;;;14.06;100.00
3812;BME280;1921;49.368;11.068;2022-09-09T03:53:44;97303.22;;;13.98;100.00
3812;BME280;1921;49.368;11.068;2022-09-09T03:56:10;97300.56;;;14.05;100.00
3812;BME280;1921;49.368;11.068;2022-09-09T03:58:37;97354.91;;;14.42;100.00
3812;BME280;1921;49.368;11.068;2022-09-09T04:01:10;97303.94;;;14.18;100.00
3812;BME280;1921;49.368;11.068;2022-09-09T04:03:36;97332.91;;;14.43;100.00
3812;BME280;1921;49.368;11.068;2022-09-09T04:06:04;97295.88;;;14.13;100.00
3812;BME280;1921;49.368;11.068;2022-09-09T04:08:30;97337.16;;;14.38;100.00
3812;BME280;1921;49.368;11.068;2022-09-09T04:11:00;97336.59;;;14.29;100.00
3812;BME280;1921;49.368;11.068;2022-09-09T04:13:27;97303.00;;;13.99;100.00
3812;BME280;1921;49.368;11.068;2022-09-09T04:15:55;97242.78;;;13.60;100.00
3812;BME280;1921;49.368;11.068;2022-09-09T04:18:23;97317.69;;;14.07;100.00
3812;BME280;1921;49.368;11.068;2022-09-09T04:20:50;97225.72;;;13.44;100.00
3812;BME280;1921;49.368;11.068;2022-09-09T04:23:18;97207.00;;;13.27;100.00
3812;BME280;1921;49.368;11.068;2022-09-09T04:25:49;97306.81;;;13.97;100.00
3812;BME280;1921;49.368;11.068;2022-09-09T04:28:16;97317.88;;;14.12;100.00
3812;BME280;1921;49.368;11.068;2022-09-09T04:30:43;97284.03;;;13.91;100.00
3812;BME280;1921;49.368;11.068;2022-09-09T04:33:10;97311.63;;;14.13;100.00
3812;BME280;1921;49.368;11.068;2022-09-09T04:35:36;97363.00;;;14.47;100.00
3812;BME280;1921;49.368;11.068;2022-09-09T04:38:03;97310.41;;;14.09;100.00
3812;BME280;1921;49.368;11.068;2022-09-09T04:40:30;97347.91;;;14.30;100.00
3812;BME280;1921;49.368;11.068;2022-09-09T04:43:03;97315.25;;;14.12;100.00
3812;BME280;1921;49.368;11.068;2022-09-09T04:45:32;97301.78;;;14.02;100.00
3812;BME280;1921;49.368;11.068;2022-09-09T04:47:58;97318.50;;;14.08;100.00
3812;BME280;1921;49.368;11.068;2022-09-09T04:50:25;97298.59;;;13.87;100.00
3812;BME280;1921;49.368;11.068;2022-09-09T04:52:51;97311.47;;;13.95;100.00
3812;BME280;1921;49.368;11.068;2022-09-09T04:55:19;97300.81;;;13.83;100.00
3812;BME280;1921;49.368;11.068;2022-09-09T04:57:45;97289.94;;;13.80;100.00
3812;BME280;1921;49.368;11.068;2022-09-09T05:00:15;97344.91;;;14.13;100.00
3812;BME280;1921;49.368;11.068;2022-09-09T05:02:42;97291.94;;;13.78;100.00
3812;BME280;1921;49.368;11.068;2022-09-09T05:05:08;97357.78;;;14.27;100.00
3812;BME280;1921;49.368;11.068;2022-09-09T05:07:37;97309.81;;;14.07;100.00
3812;BME280;1921;49.368;11.068;2022-09-09T05:10:03;97385.38;;;14.50;100.00
3812;BME280;1921;49.368;11.068;2022-09-09T05:12:30;97349.31;;;14.25;100.00
3812;BME280;1921;49.368;11.068;2022-09-09T05:14:57;97351.50;;;14.35;100.00
3812;BME280;1921;49.368;11.068;2022-09-09T05:17:23;97349.31;;;14.25;100.00
3812;BME280;1921;49.368;11.068;2022-09-09T05:19:52;97343.66;;;14.22;100.00
3812;BME280;1921;49.368;11.068;2022-09-09T05:22:23;97378.31;;;14.44;100.00
3812;BME280;1921;49.368;11.068;2022-09-09T05:24:50;97310.06;;;13.99;100.00
3812;BME280;1921;49.368;11.068;2022-09-09T05:27:18;97389.41;;;14.46;100.00
3812;BME280;1921;49.368;11.068;2022-09-09T05:29:45;97371.47;;;14.49;100.00
3812;BME280;1921;49.368;11.068;2022-09-09T05:32:11;97274.56;;;13.90;100.00
3812;BME280;1921;49.368;11.068;2022-09-09T05:34:39;97225.81;;;13.82;100.00
3812;BME280;1921;49.368;11.068;2022-09-09T05:37:04;97361.06;;;14.74;100.00
3812;BME280;1921;49.368;11.068;2022-09-09T05:39:30;97321.75;;;14.61;100.00
3812;BME280;1921;49.368;11.068;2022-09-09T05:41:56;97017.81;;;12.80;100.00
3812;BME280;1921;49.368;11.068;2022-09-09T05:44:22;97061.19;;;13.14;100.00
3812;BME280;1921;49.368;11.068;2022-09-09T05:46:50;97220.06;;;14.12;100.00
3812;BME280;1921;49.368;11.068;2022-09-09T05:49:16;97291.16;;;14.80;100.00
3812;BME280;1921;49.368;11.068;2022-09-09T05:51:42;97038.63;;;13.13;99.28
3812;BME280;1921;49.368;11.068;2022-09-09T05:54:11;97060.28;;;13.40;98.12
3812;BME280;1921;49.368;11.068;2022-09-09T05:56:38;97312.69;;;14.89;98.24
3812;BME280;1921;49.368;11.068;2022-09-09T05:59:04;97064.41;;;13.30;97.34
3812;BME280;1921;49.368;11.068;2022-09-09T06:01:34;97151.53;;;13.57;97.73
3812;BME280;1921;49.368;11.068;2022-09-09T06:04:01;97240.19;;;14.18;97.61
3812;BME280;1921;49.368;11.068;2022-09-09T06:06:32;97169.72;;;13.90;97.89
3812;BME280;1921;49.368;11.068;2022-09-09T06:09:04;97002.13;;;12.60;98.19
3812;BME280;1921;49.368;11.068;2022-09-09T06:11:33;97166.56;;;13.74;98.59
3812;BME280;1921;49.368;11.068;2022-09-09T06:14:00;97237.25;;;14.39;99.92
3812;BME280;1921;49.368;11.068;2022-09-09T06:16:28;97176.09;;;14.07;100.00
3812;BME280;1921;49.368;11.068;2022-09-09T06:18:55;97290.72;;;14.83;100.00
3812;BME280;1921;49.368;11.068;2022-09-09T06:21:28;97093.38;;;14.11;98.94
3812;BME280;1921;49.368;11.068;2022-09-09T06:23:56;97263.94;;;15.49;97.75
3812;BME280;1921;49.368;11.068;2022-09-09T06:26:24;97236.38;;;15.33;93.67
3812;BME280;1921;49.368;11.068;2022-09-09T06:28:53;97227.47;;;15.59;94.39
3812;BME280;1921;49.368;11.068;2022-09-09T06:31:21;97303.94;;;16.31;93.11
3812;BME280;1921;49.368;11.068;2022-09-09T06:33:49;97266.38;;;16.24;91.50
3812;BME280;1921;49.368;11.068;2022-09-09T06:36:22;97268.06;;;16.19;89.28
3812;BME280;1921;49.368;11.068;2022-09-09T06:38:48;97215.72;;;15.99;88.23
3812;BME280;1921;49.368;11.068;2022-09-09T06:41:16;97271.66;;;16.24;87.56
3812;BME280;1921;49.368;11.068;2022-09-09T06:43:44;97315.31;;;16.62;87.58
3812;BME280;1921;49.368;11.068;2022-09-09T06:46:25;97283.00;;;16.55;87.95
3812;BME280;1921;49.368;11.068;2022-09-09T06:48:54;97304.66;;;16.38;87.61
3812;BME280;1921;49.368;11.068;2022-09-09T06:51:43;97140.78;;;15.34;88.22
3812;BME280;1921;49.368;11.068;2022-09-09T06:54:11;97283.56;;;16.27;87.36
3812;BME280;1921;49.368;11.068;2022-09-09T06:56:39;97345.63;;;17.13;86.76
3812;BME280;1921;49.368;11.068;2022-09-09T06:59:07;97167.78;;;15.97;85.52
3812;BME280;1921;49.368;11.068;2022-09-09T07:01:42;97165.06;;;16.03;85.92
3812;BME280;1921;49.368;11.068;2022-09-09T07:04:14;97213.28;;;16.57;85.84
3812;BME280;1921;49.368;11.068;2022-09-09T07:06:43;97307.75;;;17.61;84.31
3812;BME280;1921;49.368;11.068;2022-09-09T07:09:13;97058.53;;;15.82;79.83
3812;BME280;1921;49.368;11.068;2022-09-09T07:11:48;97224.19;;;17.03;79.88
3812;BME280;1921;49.368;11.068;2022-09-09T07:14:15;97270.72;;;17.44;78.40
3812;BME280;1921;49.368;11.068;2022-09-09T07:16:42;97227.63;;;17.38;78.95
3812;BME280;1921;49.368;11.068;2022-09-09T07:19:08;97224.53;;;17.53;78.15
3812;BME280;1921;49.368;11.068;2022-09-09T07:21:34;97103.94;;;16.97;77.58
3812;BME280;1921;49.368;11.068;2022-09-09T07:24:00;97102.88;;;17.09;77.01
3812;BME280;1921;49.368;11.068;2022-09-09T07:26:30;97164.56;;;17.72;75.90
3812;BME280;1921;49.368;11.068;2022-09-09T07:28:56;97217.06;;;17.85;75.83
3812;BME280;1921;49.368;11.068;2022-09-09T07:31:29;97261.78;;;18.32;75.21
3812;BME280;1921;49.368;11.068;2022-09-09T07:33:56;96998.09;;;16.88;76.87
3812;BME280;1921;49.368;11.068;2022-09-09T07:36:36;97277.06;;;18.87;73.38
3812;BME280;1921;49.368;11.068;2022-09-09T07:39:09;97221.97;;;18.50;70.65
3812;BME280;1921;49.368;11.068;2022-09-09T07:41:42;97329.13;;;19.66;72.29
3812;BME280;1921;49.368;11.068;2022-09-09T07:44:14;97400.41;;;20.44;70.62
3812;BME280;1921;49.368;11.068;2022-09-09T07:46:40;97381.84;;;20.44;70.36
3812;BME280;1921;49.368;11.068;2022-09-09T07:49:08;97360.56;;;20.56;68.95
3812;BME280;1921;49.368;11.068;2022-09-09T07:51:38;97253.75;;;20.07;68.04
3812;BME280;1921;49.368;11.068;2022-09-09T07:54:28;97186.78;;;19.46;65.17
3812;BME280;1921;49.368;11.068;2022-09-09T07:58:45;97299.47;;;20.68;64.36
3812;BME280;1921;49.368;11.068;2022-09-09T08:02:05;97353.25;;;21.17;63.45
3812;BME280;1921;49.368;11.068;2022-09-09T08:04:32;97420.97;;;21.84;62.70
3812;BME280;1921;49.368;11.068;2022-09-09T08:07:05;97420.50;;;22.29;63.37
3812;BME280;1921;49.368;11.068;2022-09-09T08:10:41;97435.72;;;22.92;59.33
3812;BME280;1921;49.368;11.068;2022-09-09T08:13:38;97257.72;;;21.87;58.93
3812;BME280;1921;49.368;11.068;2022-09-09T08:16:17;97157.31;;;21.78;57.69
3812;BME280;1921;49.368;11.068;2022-09-09T08:18:43;97206.97;;;22.66;52.66
3812;BME280;1921;49.368;11.068;2022-09-09T08:21:23;97225.63;;;22.92;53.62
3812;BME280;1921;49.368;11.068;2022-09-09T08:23:51;97200.63;;;23.13;52.24
3812;BME280;1921;49.368;11.068;2022-09-09T08:26:31;97432.03;;;24.81;52.23
3812;BME280;1921;49.368;11.068;2022-09-09T08:29:00;97426.41;;;25.37;51.01
3812;BME280;1921;49.368;11.068;2022-09-09T08:31:34;97324.66;;;25.39;48.29
3812;BME280;1921;49.368;11.068;2022-09-09T08:34:02;96999.03;;;23.54;46.79
3812;BME280;1921;49.368;11.068;2022-09-09T08:36:41;97122.16;;;24.98;44.18
3812;BME280;1921;49.368;11.068;2022-09-09T08:39:09;97299.78;;;26.49;41.81
3812;BME280;1921;49.368;11.068;2022-09-09T08:42:49;97440.25;;;28.22;41.67
3812;BME280;1921;49.368;11.068;2022-09-09T08:45:23;97437.63;;;28.77;39.01
3812;BME280;1921;49.368;11.068;2022-09-09T08:48:37;97437.81;;;28.80;37.40
3812;BME280;1921;49.368;11.068;2022-09-09T08:51:06;97194.19;;;26.98;37.94
3812;BME280;1921;49.368;11.068;2022-09-09T08:53:46;97331.66;;;28.05;37.58
3812;BME280;1921;49.368;11.068;2022-09-09T08:56:21;97102.22;;;27.08;36.09
3812;BME280;1921;49.368;11.068;2022-09-09T08:58:57;97264.91;;;28.31;35.82
3812;BME280;1921;49.368;11.068;2022-09-09T09:01:45;97442.34;;;29.71;34.64
3812;BME280;1921;49.368;11.068;2022-09-09T09:07:18;97439.50;;;30.21;34.40
3812;BME280;1921;49.368;11.068;2022-09-09T09:12:56;97127.47;;;28.12;32.71
3812;BME280;1921;49.368;11.068;2022-09-09T09:15:32;97349.94;;;29.98;33.50
3812;BME280;1921;49.368;11.068;2022-09-09T09:18:03;97071.44;;;28.47;32.85
3812;BME280;1921;49.368;11.068;2022-09-09T09:20:58;97046.47;;;28.01;33.39
3812;BME280;1921;49.368;11.068;2022-09-09T09:23:42;97312.31;;;28.86;34.50
3812;BME280;1921;49.368;11.068;2022-09-09T09:26:10;97263.03;;;28.32;34.86
3812;BME280;1921;49.368;11.068;2022-09-09T09:28:42;97359.00;;;28.35;36.04
3812;BME280;1921;49.368;11.068;2022-09-09T09:31:11;97159.56;;;27.34;35.40
3812;BME280;1921;49.368;11.068;2022-09-09T09:33:54;97279.91;;;27.91;35.48
3812;BME280;1921;49.368;11.068;2022-09-09T09:36:33;97204.81;;;27.36;34.57
3812;BME280;1921;49.368;11.068;2022-09-09T09:39:01;97218.78;;;26.25;36.40
3812;BME280;1921;49.368;11.068;2022-09-09T09:41:40;97139.38;;;25.40;38.06
3812;BME280;1921;49.368;11.068;2022-09-09T09:46:53;97158.44;;;25.52;38.55
3812;BME280;1921;49.368;11.068;2022-09-09T09:49:30;97178.63;;;27.00;35.53
3812;BME280;1921;49.368;11.068;2022-09-09T09:52:03;97058.38;;;27.31;34.23
3812;BME280;1921;49.368;11.068;2022-09-09T09:54:33;97166.38;;;29.04;32.92
3812;BME280;1921;49.368;11.068;2022-09-09T09:57:16;97140.75;;;29.38;31.42
3812;BME280;1921;49.368;11.068;2022-09-09T09:59:43;97280.53;;;30.57;31.00
3812;BME280;1921;49.368;11.068;2022-09-09T10:02:24;97167.78;;;29.64;30.76
3812;BME280;1921;49.368;11.068;2022-09-09T10:05:19;97164.09;;;29.20;31.96
3812;BME280;1921;49.368;11.068;2022-09-09T10:07:46;97346.81;;;31.27;31.71
3812;BME280;1921;49.368;11.068;2022-09-09T10:10:22;97204.66;;;30.64;30.12
3812;BME280;1921;49.368;11.068;2022-09-09T10:16:27;97321.41;;;32.48;28.99
3812;BME280;1921;49.368;11.068;2022-09-09T10:27:38;97382.47;;;34.32;27.21
3812;BME280;1921;49.368;11.068;2022-09-09T10:36:25;97198.22;;;31.84;28.10
3812;BME280;1921;49.368;11.068;2022-09-09T10:39:17;97234.44;;;29.84;30.97
3812;BME280;1921;49.368;11.068;2022-09-09T10:42:05;97227.81;;;29.99;32.41
3812;BME280;1921;49.368;11.068;2022-09-09T10:45:00;97245.75;;;30.12;31.93
3812;BME280;1921;49.368;11.068;2022-09-09T10:47:43;97192.19;;;29.45;32.66
3812;BME280;1921;49.368;11.068;2022-09-09T10:50:58;97192.81;;;30.56;32.20
3812;BME280;1921;49.368;11.068;2022-09-09T10:53:46;97374.53;;;32.94;29.39
3812;BME280;1921;49.368;11.068;2022-09-09T10:56:18;97202.53;;;32.57;28.33
3812;BME280;1921;49.368;11.068;2022-09-09T10:58:56;97130.47;;;32.69;27.68
3812;BME280;1921;49.368;11.068;2022-09-09T11:01:27;97022.03;;;31.72;27.70
3812;BME280;1921;49.368;11.068;2022-09-09T11:04:02;97026.06;;;31.36;28.85
3812;BME280;1921;49.368;11.068;2022-09-09T11:06:37;97189.38;;;31.37;28.47
3812;BME280;1921;49.368;11.068;2022-09-09T11:09:05;97138.22;;;29.72;30.41
3812;BME280;1921;49.368;11.068;2022-09-09T11:11:45;97023.50;;;28.09;31.14
3812;BME280;1921;49.368;11.068;2022-09-09T11:14:22;97151.63;;;27.98;32.88
3812;BME280;1921;49.368;11.068;2022-09-09T11:16:53;97089.88;;;26.93;33.76
3812;BME280;1921;49.368;11.068;2022-09-09T11:19:34;96992.84;;;26.27;34.55
3812;BME280;1921;49.368;11.068;2022-09-09T11:22:37;97219.38;;;27.30;34.89
3812;BME280;1921;49.368;11.068;2022-09-09T11:25:19;97371.41;;;28.44;35.68
3812;BME280;1921;49.368;11.068;2022-09-09T11:33:51;97370.78;;;28.89;34.24
3812;BME280;1921;49.368;11.068;2022-09-09T11:44:39;97086.28;;;29.46;30.11
3812;BME280;1921;49.368;11.068;2022-09-09T11:47:29;97361.22;;;31.49;30.11
3812;BME280;1921;49.368;11.068;2022-09-09T11:52:44;97240.03;;;29.34;31.87
3812;BME280;1921;49.368;11.068;2022-09-09T11:55:32;97218.53;;;28.67;32.72
3812;BME280;1921;49.368;11.068;2022-09-09T11:58:05;97144.56;;;27.88;33.03
3812;BME280;1921;49.368;11.068;2022-09-09T12:00:45;97171.22;;;27.85;34.08
3812;BME280;1921;49.368;11.068;2022-09-09T12:06:41;97338.34;;;28.35;35.38
3812;BME280;1921;49.368;11.068;2022-09-09T12:11:50;97054.50;;;26.50;35.02
3812;BME280;1921;49.368;11.068;2022-09-09T12:14:34;97111.91;;;27.04;35.68
3812;BME280;1921;49.368;11.068;2022-09-09T12:17:20;97113.59;;;26.53;35.89
3812;BME280;1921;49.368;11.068;2022-09-09T12:19:48;97034.94;;;25.22;37.27
3812;BME280;1921;49.368;11.068;2022-09-09T12:25:20;97275.06;;;28.21;32.59
3812;BME280;1921;49.368;11.068;2022-09-09T12:28:20;97332.78;;;29.09;30.54
3812;BME280;1921;49.368;11.068;2022-09-09T12:34:18;96980.09;;;27.48;31.09
3812;BME280;1921;49.368;11.068;2022-09-09T12:37:04;97124.84;;;27.84;32.17
3812;BME280;1921;49.368;11.068;2022-09-09T12:39:38;97064.53;;;26.58;33.96
3812;BME280;1921;49.368;11.068;2022-09-09T12:42:17;97147.63;;;26.80;34.85
3812;BME280;1921;49.368;11.068;2022-09-09T12:45:00;97136.88;;;26.53;35.38
3812;BME280;1921;49.368;11.068;2022-09-09T12:49:58;97138.94;;;26.56;35.51
3812;BME280;1921;49.368;11.068;2022-09-09T12:52:32;97035.78;;;25.61;35.92
3812;BME280;1921;49.368;11.068;2022-09-09T12:55:02;97010.50;;;26.10;35.53
3812;BME280;1921;49.368;11.068;2022-09-09T12:57:38;97044.06;;;26.81;35.17
3812;BME280;1921;49.368;11.068;2022-09-09T13:00:15;97097.56;;;27.41;35.19
3812;BME280;1921;49.368;11.068;2022-09-09T13:03:01;97137.53;;;27.37;33.79
3812;BME280;1921;49.368;11.068;2022-09-09T13:05:37;97098.75;;;26.75;34.36
3812;BME280;1921;49.368;11.068;2022-09-09T13:08:11;97147.09;;;26.46;36.36
3812;BME280;1921;49.368;11.068;2022-09-09T13:10:57;97030.09;;;24.08;42.19
3812;BME280;1921;49.368;11.068;2022-09-09T13:13:52;97176.06;;;23.62;57.79
3812;BME280;1921;49.368;11.068;2022-09-09T13:18:51;97282.72;;;21.96;67.56
3812;BME280;1921;49.368;11.068;2022-09-09T13:21:17;97322.41;;;21.70;73.54
3812;BME280;1921;49.368;11.068;2022-09-09T13:23:50;97194.41;;;20.52;75.37
3812;BME280;1921;49.368;11.068;2022-09-09T13:26:26;97271.81;;;20.86;77.57
3812;BME280;1921;49.368;11.068;2022-09-09T13:28:53;97308.66;;;21.41;81.44
3812;BME280;1921;49.368;11.068;2022-09-09T13:31:29;97305.19;;;21.78;73.11
3812;BME280;1921;49.368;11.068;2022-09-09T13:33:55;97306.22;;;22.97;77.74
3812;BME280;1921;49.368;11.068;2022-09-09T13:36:33;97314.47;;;23.72;71.05
3812;BME280;1921;49.368;11.068;2022-09-09T13:39:03;97236.81;;;22.99;64.77
3812;BME280;1921;49.368;11.068;2022-09-09T13:41:36;97270.84;;;23.07;74.88
3812;BME280;1921;49.368;11.068;2022-09-09T13:47:15;97279.19;;;24.16;68.52
3812;BME280;1921;49.368;11.068;2022-09-09T13:49:42;97125.09;;;22.94;61.67
3812;BME280;1921;49.368;11.068;2022-09-09T13:52:17;97006.28;;;22.08;67.04
3812;BME280;1921;49.368;11.068;2022-09-09T13:54:51;97154.34;;;22.58;66.25
3812;BME280;1921;49.368;11.068;2022-09-09T13:57:22;97214.13;;;22.61;60.40
3812;BME280;1921;49.368;11.068;2022-09-09T13:59:49;96977.59;;;20.81;63.20
3812;BME280;1921;49.368;11.068;2022-09-09T14:02:16;97018.94;;;20.82;64.75
3812;BME280;1921;49.368;11.068;2022-09-09T14:04:43;97289.47;;;22.14;62.85
3812;BME280;1921;49.368;11.068;2022-09-09T14:07:13;97312.19;;;22.47;63.79
3812;BME280;1921;49.368;11.068;2022-09-09T14:09:40;97315.19;;;22.71;63.81
3812;BME280;1921;49.368;11.068;2022-09-09T14:12:12;97198.91;;;22.15;60.35
3812;BME280;1921;49.368;11.068;2022-09-09T14:14:38;97315.81;;;22.93;58.98
3812;BME280;1921;49.368;11.068;2022-09-09T14:17:23;97331.41;;;22.74;56.43
3812;BME280;1921;49.368;11.068;2022-09-09T14:19:50;97298.06;;;22.31;59.82
3812;BME280;1921;49.368;11.068;2022-09-09T14:22:16;97268.72;;;22.11;60.02
3812;BME280;1921;49.368;11.068;2022-09-09T14:24:42;97284.97;;;22.14;59.95
3812;BME280;1921;49.368;11.068;2022-09-09T14:27:08;97349.38;;;22.47;59.33
3812;BME280;1921;49.368;11.068;2022-09-09T14:29:34;97296.66;;;22.23;61.20
3812;BME280;1921;49.368;11.068;2022-09-09T14:31:59;97296.19;;;22.32;62.55
3812;BME280;1921;49.368;11.068;2022-09-09T14:34:26;97304.19;;;22.47;64.25
3812;BME280;1921;49.368;11.068;2022-09-09T14:36:52;97287.72;;;22.45;64.66
3812;BME280;1921;49.368;11.068;2022-09-09T14:39:18;97268.50;;;22.22;60.68
3812;BME280;1921;49.368;11.068;2022-09-09T14:41:43;97321.00;;;22.57;58.48
3812;BME280;1921;49.368;11.068;2022-09-09T14:44:09;97278.13;;;22.34;57.95
3812;BME280;1921;49.368;11.068;2022-09-09T14:46:35;97315.81;;;23.34;57.67
3812;BME280;1921;49.368;11.068;2022-09-09T14:49:01;97323.09;;;24.44;53.14
3812;BME280;1921;49.368;11.068;2022-09-09T14:51:27;97326.22;;;25.45;51.00
3812;BME280;1921;49.368;11.068;2022-09-09T14:53:58;97377.75;;;26.62;46.69
3812;BME280;1921;49.368;11.068;2022-09-09T14:56:27;97335.84;;;26.52;45.27
3812;BME280;1921;49.368;11.068;2022-09-09T14:58:56;97358.72;;;26.39;44.83
3812;BME280;1921;49.368;11.068;2022-09-09T15:01:23;97290.19;;;25.47;47.28
3812;BME280;1921;49.368;11.068;2022-09-09T15:03:52;97314.63;;;24.86;48.90
3812;BME280;1921;49.368;11.068;2022-09-09T15:06:22;97307.84;;;25.04;48.16
3812;BME280;1921;49.368;11.068;2022-09-09T15:08:51;97221.03;;;24.78;46.15
3812;BME280;1921;49.368;11.068;2022-09-09T15:11:18;97120.81;;;25.01;44.12
3812;BME280;1921;49.368;11.068;2022-09-09T15:13:44;97311.19;;;27.49;42.93
3812;BME280;1921;49.368;11.068;2022-09-09T15:16:16;97231.81;;;27.07;39.72
3812;BME280;1921;49.368;11.068;2022-09-09T15:18:43;97204.34;;;26.64;40.59
3812;BME280;1921;49.368;11.068;2022-09-09T15:21:14;97164.94;;;25.46;42.63
3812;BME280;1921;49.368;11.068;2022-09-09T15:23:41;97303.94;;;26.61;43.14
3812;BME280;1921;49.368;11.068;2022-09-09T15:26:07;97238.22;;;26.54;43.41
3812;BME280;1921;49.368;11.068;2022-09-09T15:28:34;97210.53;;;27.16;41.45
3812;BME280;1921;49.368;11.068;2022-09-09T15:31:07;97137.72;;;27.14;39.02
3812;BME280;1921;49.368;11.068;2022-09-09T15:33:34;97198.75;;;28.27;38.55